Have a Safe July 4th! 

Flight Track Log - Related Links

Times and Time Zones

All times are in EDT time to prevent confusion due to time zone crossing. See the UAL4234 flight status page for this flight to view local times or setup timezone preferences in your user account.

Time Position Orientation Groundspeed Altitude Reporting Facility
EDT Latitude Longitude Course Direction KTS MPH feet Rate Location/Type
Fri 11:21:17 AM 29.9639 -95.3458 90° East 156 180 700  Level Houston Center
Fri 11:22:37 AM 29.9481 -95.2633 102° East 226 260 3,900 1,737 Climbing Houston Center
Fri 11:23:11 AM 29.9464 -95.2261 93° East 223 257 4,000 109 Climbing Houston Center
Fri 11:23:32 AM 29.9433 -95.1892 95° East 252 290 4,000 387 Level Houston Center
Fri 11:24:13 AM 29.9458 -95.1461 86° East 243 280 4,400 1,588 Climbing Houston Center
Fri 11:24:40 AM 29.9497 -95.1014 84° East 261 300 5,800 2,667 Climbing Houston Center
Fri 11:25:00 AM 29.9834 -94.8065 90° East  Level FlightAware Approximate
Fri 11:25:16 AM 29.9525 -95.0622 85° East 259 298 7,200  Level Houston Center
Fri 11:25:35 AM 29.9550 -95.0236 86° East 270 311 8,600 2,806 Climbing Houston Center
Fri 11:26:00 AM 29.9834 -94.7011 90° East  Level FlightAware Approximate
Fri 11:26:18 AM 29.9583 -94.9728 86° East 276 318 10,100  Level Houston Center
Fri 11:26:42 AM 29.9617 -94.9142 86° East 312 359 10,800 1,258 Climbing Houston Center
Fri 11:27:20 AM 29.9686 -94.8461 83° East 334 384 11,400 1,071 Climbing Houston Center
Fri 11:27:38 AM 29.9683 -94.8072 90° East 376 433 11,800 1,645 Climbing Houston Center
Fri 11:28:22 AM 29.9764 -94.7256 83° East 372 428 13,100 1,755 Climbing Houston Center
Fri 11:29:24 AM 29.9853 -94.6042 85° East 379 436 14,900 1,645 Climbing Houston Center
Fri 11:30:26 AM 29.9928 -94.4778 86° East 387 445 16,500 1,344 Climbing Houston Center
Fri 11:31:29 AM 30.0053 -94.3517 83° East 396 456 17,700 1,210 Climbing Houston Center
Fri 11:32:30 AM 30.0172 -94.2247 84° East 399 459 19,000 629 Climbing Houston Center
Fri 11:33:33 AM 30.0314 -94.0681 84° East 412 474 19,000  Level Houston Center
Fri 11:34:35 AM 30.0428 -93.9372 84° East 412 474 19,000  Level Houston Center
Fri 11:35:37 AM 30.0547 -93.8069 84° East 412 474 19,000  Level Houston Center
Fri 11:36:39 AM 30.0661 -93.6756 84° East 415 478 19,000  Level Houston Center
Fri 11:37:41 AM 30.0783 -93.5450 84° East 413 475 19,000  Level Houston Center
Fri 11:38:43 AM 30.0906 -93.3908 85° East 409 471 19,000  Level Houston Center
Fri 11:39:46 AM 30.1022 -93.2631 84° East 405 466 19,000  Level Houston Center
Fri 11:40:48 AM 30.1133 -93.1314 84° East 413 475 19,000  Level Houston Center
Fri 11:41:51 AM 30.1242 -92.9986 85° East 418 481 19,000 -726 Level Houston Center
Fri 11:42:52 AM 30.1389 -92.8442 84° East 408 470 17,500 -2,195 Descending Houston Center
Fri 11:43:54 AM 30.1483 -92.7247 85° East 385 443 14,500 -2,855 Descending Houston Center
Fri 11:44:56 AM 30.1578 -92.6100 85° East 367 422 11,600 -2,112 Descending Houston Center
Fri 11:45:59 AM 30.1639 -92.5139 86° East 307 353 10,100 -1,536 Descending Houston Center
Fri 11:47:01 AM 30.1358 -92.4311 111° Southeast 281 323 8,400 -1,403 Descending Houston Center
Fri 11:48:03 AM 30.1086 -92.3522 112° Southeast 267 307 7,200 -1,258 Descending Houston Center
Fri 11:49:05 AM 30.0761 -92.2589 112° Southeast 263 303 5,800 -1,210 Descending Houston Center
Fri 11:50:07 AM 30.0525 -92.1922 112° Southeast 235 270 4,700 -1,113 Descending Houston Center
Fri 11:51:09 AM 30.0511 -92.1333 92° East 211 243 3,500 -871 Descending Houston Center
Fri 11:52:11 AM 30.0839 -92.0947 46° Northeast 181 208 2,900 -581 Descending Houston Center

Login

Don't have an account? Register now (free) for customized features, flight alerts, and more!